Tropical Cyclones
[Index]
Main Index Home Page Stock Weather Photos Extreme Storms Discussion Storm News and Storm Chasing Reports Tropical Cyclones / Hurricanes / Typhoons Weather Data and Links Wild Fires / Bushfires Weather Observation Techniques Weather Picture Catalogue Tornado Pictures and Reports Stock Video Footage and DVDs for sale
Season 2015-2016 Tropical Cyclone ZENA Track Map
Season 2015-2016 Summaries (Operational Data): [AU] [SIO] [SPAC] [SH]
<<- Previous TC | 2015-2016 Season | Next TC ->>

click for intensity scale information  Lat/long Grid: Show Hide

 Date Labels: Show Hide

Operational Tropical Cyclone Data : JTWC Advisories

Name: ZENA
Number: 1618

03 Apr 2016 00:00 UTC to 07 Apr 2016 18:00 UTC

    date/time    lat    long     hPa   cat  kts
2016-04-03 00   13.8   164.8    1010         15          
2016-04-03 06   12.6   161.4    1010         15          
2016-04-03 12   12.7   161.6    1010         15          
2016-04-03 18   12.8   161.7    1010         15          
2016-04-04 00   12.6   161.0    1007         20          
2016-04-04 06   13.0   161.7    1004         25          
2016-04-04 12   13.4   162.4    1004         25          
2016-04-04 18   13.8   163.1    1000         30          
2016-04-05 00   14.2   164.4    1000         30          
2016-04-05 06   14.8   166.6     996    1    35          
2016-04-05 12   15.6   168.2     989    1    45          
2016-04-05 18   16.6   170.3     974    3    65          
2016-04-06 00   17.7   172.8     956    4    90          
2016-04-06 06   18.5   175.1     967    3    75          
2016-04-06 12   18.6   178.1     974    3    65          
2016-04-06 18   20.5   178.7W    990    2    55          
2016-04-07 00   21.5   176.0W    989    1    45          
2016-04-07 06   22.1   173.4W    996    1    35          
2016-04-07 12   22.8   170.8W   1000         30          
2016-04-07 18   22.4   165.3                             
Winds are 10-min average.

Tropical cyclone tracks developed by Michael Bath using operational warnings and advisories and Google Maps.


[Australian Severe Weather index] [Copyright Notice] [Email Contacts] [Search This Site] [Privacy Policy]
Document: tropical_cyclone_zena.htm Updated: 2 May 2017